Latest Weather Observations for Munglinup West

IDW60801

Issued at 6:35 pm WST Wednesday 30 July 2014 (issued every 30 minutes, with the page automatically refreshed every 10 minutes)

About weather observations | Map of weather stations | Latest weather observations for WA | Other Formats
Station Details ID: 012044 Name: MUNGLINUP WEST Lat: -33.55 Lon: 120.70 Height: 220.0 m
Data from the previous 72 hours. | See also: Recent months at Munglinup West
Date/Time
WST
Temp
°C
App
Temp
°C
Dew
Point
Rel
Hum
%
Delta-T
°C
Wind Press
QNH
hPa
Press
MSL
hPa
Rain
since 9 am
mm
Dir
 
Spd
km/h
Gust
km/h
Spd
kts
Gust
kts
30/06:30pm 14.9 10.4 8.6 66 3.2 W 22 33 12 18 1017.2 - 0.0
30/06:00pm 15.4 11.4 8.9 65 3.4 WNW 20 35 11 19 1016.8 1016.9 0.0
30/05:30pm 15.9 12.0 8.6 62 3.8 WNW 19 30 10 16 1016.6 - 0.0
30/05:00pm 16.1 12.0 8.6 61 3.9 WNW 20 32 11 17 1016.4 1016.5 0.0
30/04:30pm 16.9 11.6 8.6 58 4.3 WNW 26 41 14 22 1016.2 - 0.0
30/04:00pm 17.7 13.0 9.3 58 4.4 WNW 24 35 13 19 1016.2 1016.2 0.0
30/03:30pm 17.7 11.8 9.1 57 4.5 WNW 30 44 16 24 1016.2 - 0.0
30/03:00pm 17.6 12.4 9.0 57 4.5 WNW 26 39 14 21 1016.2 1016.2 0.0
30/02:30pm 17.2 11.4 9.4 60 4.1 WNW 30 46 16 25 1016.2 - 0.0
30/02:25pm 17.8 12.2 8.9 56 4.7 WNW 28 46 15 25 1016.2 - 0.0
30/02:00pm 16.7 10.5 9.9 64 3.6 W 33 43 18 23 1016.2 1016.2 0.0
30/01:30pm 15.5 8.6 9.0 65 3.4 W 35 48 19 26 1016.6 - 0.0
30/01:00pm 15.9 10.1 9.3 65 3.4 W 30 43 16 23 1016.7 1016.8 0.0
30/12:30pm 17.2 12.2 9.6 61 4.0 W 26 44 14 24 1017.0 - 0.0
30/12:00pm 16.8 11.8 9.5 62 3.8 WNW 26 39 14 21 1017.4 1017.5 0.0
30/11:30am 16.3 11.2 9.3 63 3.7 WNW 26 37 14 20 1017.8 - 0.0
30/11:00am 16.1 10.6 9.3 64 3.5 WNW 28 41 15 22 1018.2 1018.3 0.0
30/10:30am 14.6 8.7 9.0 69 2.9 WNW 30 41 16 22 1018.6 - 0.0
30/10:00am 14.3 9.6 9.3 72 2.6 WNW 24 39 13 21 1019.2 1019.3 0.0
30/09:30am 14.0 9.7 9.2 73 2.5 WNW 22 32 12 17 1019.3 - 0.0
30/09:00am 13.6 9.2 9.1 74 2.3 WNW 22 35 12 19 1019.3 1019.4 0.0
30/08:30am 13.2 9.2 8.9 75 2.2 WNW 20 35 11 19 1019.3 - 0.0
30/08:00am 12.7 8.9 9.0 78 1.9 W 19 30 10 16 1019.3 1019.4 0.0
30/07:30am 12.3 9.3 9.1 81 1.6 WNW 15 24 8 13 1019.4 - 0.0
30/07:00am 12.0 8.6 9.2 83 1.4 WNW 17 24 9 13 1019.2 1019.3 0.0
30/06:30am 11.8 8.9 9.7 87 1.1 WNW 15 24 8 13 1019.1 - 0.0
30/06:00am 11.6 9.2 9.9 89 0.9 WNW 13 22 7 12 1019.1 1019.2 0.0
30/05:30am 12.0 9.2 9.9 87 1.1 WNW 15 22 8 12 1019.1 - 0.0
30/05:00am 11.9 8.7 10.1 89 0.9 WNW 17 26 9 14 1019.1 1019.2 0.0
30/04:30am 11.6 8.5 10.2 91 0.7 WNW 17 24 9 13 1019.1 - 0.0
30/04:00am 11.2 8.4 10.0 92 0.6 WNW 15 24 8 13 1019.1 1019.2 0.0
30/03:30am 10.7 7.8 9.6 93 0.6 WNW 15 22 8 12 1019.4 - 0.0
30/03:00am 11.0 7.7 9.6 91 0.7 WNW 17 24 9 13 1019.8 1019.8 0.0
30/02:30am 10.7 7.8 9.5 92 0.6 WNW 15 24 8 13 1020.1 - 0.0
30/02:00am 10.7 7.5 9.8 94 0.5 WNW 17 26 9 14 1020.2 1020.3 0.0
30/01:30am 10.3 7.3 9.4 94 0.5 NW 15 20 8 11 1020.2 - 0.0
30/01:00am 10.0 7.0 9.1 94 0.4 NW 15 20 8 11 1020.4 1020.5 0.0
30/12:30am 10.1 7.4 9.0 93 0.5 NW 13 19 7 10 1020.3 - 0.0
30/12:00am 10.2 7.2 9.1 93 0.5 NW 15 20 8 11 1020.4 1020.5 0.0
 
Date/Time
WST
Temp
°C
App
Temp
°C
Dew
Point
Rel
Hum
%
Delta-T
°C
Wind Press
QNH
hPa
Press
MSL
hPa
Rain
since 9 am
mm
Dir
 
Spd
km/h
Gust
km/h
Spd
kts
Gust
kts
29/11:30pm 10.2 7.5 9.0 92 0.6 NW 13 20 7 11 1020.6 - 0.0
29/11:00pm 10.2 7.4 8.6 90 0.8 NW 13 20 7 11 1020.7 1020.8 0.0
29/10:30pm 10.2 7.3 8.3 88 0.9 NNW 13 17 7 9 1021.0 - 0.0
29/10:00pm 10.5 7.6 8.1 85 1.2 NNW 13 17 7 9 1021.1 1021.2 0.0
29/09:30pm 11.2 8.3 8.2 82 1.5 NNW 13 17 7 9 1021.2 - 0.0
29/09:00pm 11.2 8.5 7.5 78 1.8 NW 11 13 6 7 1021.3 1021.4 0.0
29/08:30pm 12.4 9.4 7.9 74 2.2 NW 13 17 7 9 1021.3 - 0.0
29/08:00pm 13.6 10.6 7.8 68 2.9 WNW 13 17 7 9 1021.1 1021.2 0.0
29/07:30pm 14.9 11.2 7.9 63 3.5 WNW 17 26 9 14 1021.3 - 0.0
29/07:00pm 15.3 11.7 8.5 64 3.5 NW 17 30 9 16 1021.2 1021.3 0.0
29/06:30pm 15.5 12.6 9.8 69 3.0 NW 15 26 8 14 1020.9 - 0.0
29/06:00pm 15.9 12.3 9.8 67 3.2 WNW 19 26 10 14 1020.8 1020.9 0.0
29/05:30pm 16.2 12.8 9.2 63 3.7 WNW 17 24 9 13 1020.5 - 0.0
29/05:00pm 16.3 13.0 9.5 64 3.6 WNW 17 24 9 13 1020.3 1020.4 0.0
29/04:30pm 16.3 12.9 9.3 63 3.7 WNW 17 30 9 16 1020.2 - 0.0
29/04:00pm 16.9 12.5 8.8 59 4.2 WNW 22 37 12 20 1020.1 1020.1 0.0
29/03:30pm 17.2 13.2 9.1 59 4.2 WNW 20 28 11 15 1020.0 - 0.0
29/03:00pm 18.0 13.6 10.4 61 4.1 W 24 35 13 19 1019.8 1019.8 0.0
29/02:30pm 17.2 13.1 10.1 63 3.8 W 22 30 12 16 1019.9 - 0.0
29/02:00pm 17.4 12.6 10.3 63 3.8 W 26 35 14 19 1020.0 1020.0 0.0
29/01:30pm 18.7 15.1 10.5 59 4.5 WNW 20 32 11 17 1020.1 - 0.0
29/01:00pm 17.8 13.2 10.9 64 3.7 W 26 35 14 19 1020.4 1020.5 0.0
29/12:30pm 17.6 13.3 10.7 64 3.7 W 24 35 13 19 1020.8 - 0.0
29/12:00pm 17.8 13.5 10.9 64 3.7 W 24 33 13 18 1021.3 1021.4 0.0
29/11:30am 17.0 13.0 11.7 71 2.9 W 24 33 13 18 1021.5 - 0.0
29/11:00am 16.4 11.8 11.1 71 2.9 W 26 35 14 19 1021.8 1021.9 0.0
29/10:30am 16.1 11.6 11.3 73 2.6 W 26 37 14 20 1022.1 - 0.0
29/10:00am 15.5 10.5 11.1 75 2.4 W 28 37 15 20 1022.2 1022.3 0.0
29/09:30am 14.7 10.7 11.7 82 1.6 W 24 35 13 19 1022.2 - 0.0
29/09:00am 14.0 10.8 11.3 84 1.4 WNW 19 26 10 14 1022.0 1022.1 0.2
29/08:30am 12.8 10.0 11.4 91 0.7 NW 17 26 9 14 1021.9 - 0.2
29/08:00am 11.6 8.7 11.0 96 0.3 WNW 17 22 9 12 1021.6 1021.7 0.2
29/07:30am 10.7 8.0 10.2 97 0.3 WNW 15 20 8 11 1021.5 - 0.2
29/07:00am 10.2 7.8 9.9 98 0.2 WNW 13 19 7 10 1021.4 1021.5 0.2
29/06:30am 10.3 8.3 10.0 98 0.2 WNW 11 19 6 10 1021.2 - 0.2
29/06:00am 10.1 7.2 9.8 98 0.2 WNW 15 24 8 13 1020.7 1020.8 0.2
29/05:30am 10.0 6.7 9.7 98 0.2 WNW 17 24 9 13 1020.4 - 0.2
29/05:00am 9.9 7.3 9.4 97 0.3 WNW 13 19 7 10 1020.4 1020.5 0.2
29/04:30am 10.2 7.3 9.6 96 0.3 WNW 15 22 8 12 1020.2 - 0.2
29/04:00am 10.3 7.0 9.7 96 0.3 WNW 17 22 9 12 1020.0 1020.0 0.2
29/03:30am 10.6 7.8 10.0 96 0.3 WNW 15 24 8 13 1019.9 - 0.0
29/03:00am 10.4 7.2 9.8 96 0.3 WNW 17 24 9 13 1019.6 1019.7 0.0
29/02:30am 10.2 6.9 9.6 96 0.3 WNW 17 20 9 11 1019.4 - 0.0
29/02:00am 10.2 7.6 9.4 95 0.4 WNW 13 19 7 10 1019.5 1019.6 0.0
29/01:30am 10.5 7.2 9.7 95 0.4 WNW 17 22 9 12 1019.8 - 0.0
29/01:00am 10.6 7.4 9.8 95 0.4 WNW 17 24 9 13 1019.9 1019.9 0.0
29/12:30am 10.8 7.6 10.0 95 0.4 WNW 17 22 9 12 1019.8 - 0.0
29/12:00am 10.7 7.5 9.9 95 0.4 NW 17 26 9 14 1019.8 1019.8 0.0
 
Date/Time
WST
Temp
°C
App
Temp
°C
Dew
Point
Rel
Hum
%
Delta-T
°C
Wind Press
QNH
hPa
Press
MSL
hPa
Rain
since 9 am
mm
Dir
 
Spd
km/h
Gust
km/h
Spd
kts
Gust
kts
28/11:30pm 10.4 7.9 9.6 95 0.4 NW 13 19 7 10 1019.9 - 0.0
28/11:00pm 10.4 7.5 9.5 94 0.5 NW 15 20 8 11 1020.2 1020.3 0.0
28/10:30pm 10.7 8.2 9.6 93 0.6 NW 13 17 7 9 1020.4 - 0.0
28/10:00pm 11.0 8.5 9.8 92 0.6 NW 13 15 7 8 1020.4 1020.5 0.0
28/09:30pm 11.6 9.2 10.0 90 0.8 NW 13 20 7 11 1020.6 - 0.0
28/09:00pm 11.8 9.4 10.0 89 0.9 NW 13 17 7 9 1020.5 1020.6 0.0
28/08:30pm 12.2 9.8 10.1 87 1.1 NW 13 17 7 9 1020.5 - 0.0
28/08:00pm 12.8 10.1 10.2 84 1.4 NW 15 20 8 11 1020.3 1020.4 0.0
28/07:30pm 13.0 10.6 10.2 83 1.5 NW 13 19 7 10 1020.1 - 0.0
28/07:00pm 13.4 11.0 10.0 80 1.8 NW 13 20 7 11 1019.9 1019.9 0.0
28/06:30pm 14.0 11.9 9.6 75 2.3 NW 11 17 6 9 1019.6 - 0.0
28/06:00pm 15.0 12.5 9.6 70 2.8 NW 13 22 7 12 1019.5 1019.6 0.0
28/05:30pm 15.8 13.2 9.5 66 3.3 WNW 13 20 7 11 1019.3 - 0.0
28/05:00pm 15.9 12.9 9.1 64 3.5 WNW 15 26 8 14 1019.0 1019.1 0.0
28/04:30pm 16.7 12.7 9.1 61 4.0 W 20 41 11 22 1018.7 - 0.0
28/04:00pm 16.7 12.5 9.9 64 3.6 W 22 30 12 16 1018.8 1018.9 0.0
28/03:30pm 16.8 11.5 9.7 63 3.8 W 28 39 15 21 1018.4 - 0.0
28/03:00pm 17.5 11.7 9.4 59 4.3 WNW 30 44 16 24 1018.1 1018.2 0.0
28/02:30pm 17.5 11.4 9.9 61 4.1 WNW 32 48 17 26 1017.8 - 0.0
28/02:07pm 17.5 11.8 9.9 61 4.1 WNW 30 48 16 26 1017.7 - 0.0
28/02:00pm 17.3 11.0 9.7 61 4.0 W 33 43 18 23 1017.8 1017.9 0.0
28/01:30pm 17.0 10.4 10.1 64 3.7 W 35 50 19 27 1017.6 - 0.0
28/01:00pm 17.6 12.9 10.5 63 3.8 WNW 26 39 14 21 1018.0 1018.1 0.0
28/12:30pm 16.9 11.4 10.7 67 3.3 WNW 30 43 16 23 1018.7 - 0.0
28/12:08pm 16.5 10.3 9.9 65 3.5 WNW 33 57 18 31 1019.0 - 0.0
28/12:00pm 16.4 10.3 10.3 67 3.3 W 33 46 18 25 1019.3 1019.4 0.0
28/11:33am 16.0 9.8 10.1 68 3.1 W 33 56 18 30 1019.5 - 0.0
28/11:30am 16.1 10.1 10.0 67 3.2 W 32 44 17 24 1019.5 - 0.0
28/11:00am 15.4 9.2 9.5 68 3.1 W 32 48 17 26 1019.9 1019.9 0.0
28/10:30am 15.0 9.4 10.2 73 2.5 WNW 30 46 16 25 1020.1 - 0.0
28/10:16am 14.6 9.4 10.4 76 2.2 WNW 28 48 15 26 1020.1 - 0.0
28/10:00am 14.1 9.3 10.3 78 2.0 WNW 26 41 14 22 1020.1 1020.1 0.0
28/09:30am 13.1 8.6 10.1 82 1.6 NW 24 39 13 21 1020.2 - 0.0
28/09:00am 12.3 7.8 9.9 85 1.2 WNW 24 37 13 20 1020.2 1020.3 0.0
28/08:30am 11.6 7.5 10.0 90 0.8 NW 22 32 12 17 1020.0 - 0.0
28/08:00am 10.4 5.8 9.6 95 0.4 NW 24 35 13 19 1019.5 1019.6 0.0
28/07:30am 9.7 5.3 9.1 96 0.3 NW 22 32 12 17 1019.1 - 0.0
28/07:00am 9.2 5.1 8.6 96 0.3 NW 20 28 11 15 1019.1 1019.2 0.0
28/06:30am 9.1 5.2 8.5 96 0.3 NW 19 26 10 14 1018.9 - 0.0
28/06:00am 9.4 5.5 8.6 95 0.4 NW 19 26 10 14 1018.7 1018.8 0.0
28/05:30am 9.8 5.4 9.0 95 0.4 NW 22 30 12 16 1018.2 - 0.0
28/05:00am 9.8 5.5 9.2 96 0.3 NW 22 30 12 16 1018.2 1018.3 0.0
28/04:30am 9.6 5.6 9.0 96 0.3 NW 20 30 11 16 1018.4 - 0.0
28/04:00am 9.3 5.4 8.8 97 0.2 NW 19 26 10 14 1018.4 1018.5 0.0
28/03:30am 9.2 5.1 8.7 97 0.2 NW 20 26 11 14 1018.6 - 0.0
28/03:00am 9.2 5.7 8.6 96 0.3 NW 17 24 9 13 1018.9 1019.0 0.0
28/02:30am 9.3 5.7 8.5 95 0.4 NW 17 22 9 12 1019.0 - 0.0
28/02:00am 9.7 6.6 8.8 94 0.4 NW 15 19 8 10 1019.2 1019.3 0.0
28/01:30am 9.9 7.5 8.8 93 0.5 NW 11 19 6 10 1019.2 - 0.0
28/01:00am 10.3 6.9 9.1 92 0.6 NW 17 26 9 14 1018.8 1018.9 0.0
28/12:30am 10.7 7.0 9.3 91 0.7 NW 19 24 10 13 1019.1 - 0.0
28/12:00am 11.3 7.7 9.7 90 0.8 WNW 19 26 10 14 1019.4 1019.5 0.0
 
Date/Time
WST
Temp
°C
App
Temp
°C
Dew
Point
Rel
Hum
%
Delta-T
°C
Wind Press
QNH
hPa
Press
MSL
hPa
Rain
since 9 am
mm
Dir
 
Spd
km/h
Gust
km/h
Spd
kts
Gust
kts
27/11:30pm 11.6 7.9 10.2 91 0.7 WNW 20 32 11 17 1019.4 - 0.0
27/11:00pm 11.8 8.4 10.4 91 0.7 NW 19 28 10 15 1019.9 1019.9 0.0
27/10:30pm 12.2 8.9 10.8 91 0.7 NW 19 26 10 14 1019.9 - 0.0
27/10:00pm 12.3 9.3 10.7 90 0.8 NW 17 26 9 14 1020.0 1020.0 0.0
27/09:30pm 12.3 9.3 10.7 90 0.8 NW 17 28 9 15 1019.8 - 0.0
27/09:00pm 12.2 8.8 10.6 90 0.8 NW 19 24 10 13 1019.6 1019.7 0.0
27/08:30pm 12.0 8.9 10.2 89 0.9 NNW 17 24 9 13 1019.4 - 0.0
27/08:00pm 11.8 9.0 10.0 89 0.9 NW 15 22 8 12 1019.6 1019.7 0.0
27/07:30pm 11.7 8.8 9.8 88 1.0 NNW 15 20 8 11 1019.4 - 0.0
27/07:00pm 12.1 8.9 9.8 86 1.2 NW 17 20 9 11 1019.3 1019.4 0.0

Other Formats:

Comma delimited format used in spreadsheet applications
http://www.bom.gov.au/fwo/IDW60801/IDW60801.95644.axf

JavaScript Object Notation format (JSON) in row-major order
http://www.bom.gov.au/fwo/IDW60801/IDW60801.95644.json